createdAt,value
2023-01-29T00:00:49.534Z,13.98
2023-01-29T00:02:50.976Z,13.73
2023-01-29T00:04:52.734Z,15.75
2023-01-29T00:06:54.323Z,14.90
2023-01-29T00:08:55.685Z,14.63
2023-01-29T00:11:05.349Z,14.73
2023-01-29T00:13:06.713Z,14.75
2023-01-29T00:15:08.368Z,14.77
2023-01-29T00:17:10.277Z,14.13
2023-01-29T00:19:11.758Z,15.15
2023-01-29T00:21:15.680Z,13.45
2023-01-29T00:23:17.513Z,14.57
2023-01-29T00:25:18.888Z,15.32
2023-01-29T00:27:20.429Z,14.13
2023-01-29T00:29:21.994Z,13.75
2023-01-29T00:31:25.467Z,15.45
2023-01-29T00:33:28.934Z,15.50
2023-01-29T00:35:30.742Z,15.65
2023-01-29T00:37:32.139Z,16.08
2023-01-29T00:39:47.339Z,16.33
2023-01-29T00:42:07.864Z,15.32
2023-01-29T00:44:27.980Z,14.90
2023-01-29T00:48:30.699Z,13.40
2023-01-29T00:50:32.509Z,15.23
2023-01-29T00:52:36.292Z,13.93
2023-01-29T00:54:37.690Z,14.13
2023-01-29T00:56:39.045Z,16.35
2023-01-29T00:58:40.450Z,14.38
2023-01-29T01:00:41.852Z,14.95
2023-01-29T01:03:02.009Z,15.07
2023-01-29T01:07:07.513Z,13.77
2023-01-29T01:09:28.929Z,15.20
2023-01-29T01:11:30.302Z,15.15
2023-01-29T01:13:33.641Z,14.70
2023-01-29T01:15:38.265Z,14.98
2023-01-29T01:17:39.637Z,17.02
2023-01-29T01:19:41.382Z,16.27
2023-01-29T01:21:48.110Z,15.55
2023-01-29T01:23:51.876Z,15.88
2023-01-29T01:25:53.286Z,16.45
2023-01-29T01:27:55.986Z,15.73
2023-01-29T01:29:57.369Z,14.38
2023-01-29T01:31:59.696Z,15.43
2023-01-29T01:34:01.224Z,16.23
2023-01-29T01:36:03.286Z,16.45
2023-01-29T01:38:04.699Z,16.15
2023-01-29T01:40:18.388Z,15.50
2023-01-29T01:42:20.130Z,15.07
2023-01-29T01:44:58.610Z,15.75
2023-01-29T01:47:01.646Z,12.88
2023-01-29T01:49:18.949Z,14.95
2023-01-29T01:51:24.047Z,15.20
2023-01-29T01:53:34.293Z,15.65
2023-01-29T01:55:41.679Z,15.65
2023-01-29T01:57:46.640Z,17.00
2023-01-29T01:59:53.949Z,15.80
2023-01-29T02:01:55.529Z,17.23
2023-01-29T02:04:22.885Z,15.02
2023-01-29T02:06:49.310Z,16.63
2023-01-29T02:11:16.724Z,13.60
2023-01-29T02:13:19.437Z,14.98
2023-01-29T02:15:20.865Z,14.98
2023-01-29T02:17:22.403Z,15.93
2023-01-29T02:19:37.251Z,16.20
2023-01-29T02:21:54.770Z,15.68
2023-01-29T02:24:16.450Z,14.25
2023-01-29T02:26:47.405Z,13.70
2023-01-29T02:29:21.811Z,14.60
2023-01-29T02:31:39.337Z,14.63
2023-01-29T02:33:43.740Z,15.35
2023-01-29T02:36:04.596Z,16.52
2023-01-29T02:38:27.810Z,14.90
2023-01-29T02:40:35.744Z,15.18
2023-01-29T02:42:57.476Z,15.60
2023-01-29T02:45:04.622Z,15.40
2023-01-29T02:47:15.153Z,15.55
2023-01-29T02:49:29.966Z,15.25
2023-01-29T02:51:41.233Z,14.18
2023-01-29T02:53:54.064Z,14.63
2023-01-29T02:56:03.521Z,14.68
2023-01-29T02:58:13.921Z,15.45
2023-01-29T03:00:22.119Z,15.48
2023-01-29T03:02:33.048Z,15.82
2023-01-29T03:04:43.066Z,17.02
2023-01-29T03:06:56.970Z,16.58
2023-01-29T03:09:08.070Z,14.48
2023-01-29T03:11:15.524Z,14.95
2023-01-29T03:16:04.351Z,15.52
2023-01-29T03:18:11.716Z,14.15
2023-01-29T03:20:18.919Z,15.98
2023-01-29T03:22:23.221Z,15.93
2023-01-29T03:24:55.796Z,15.90
2023-01-29T03:27:19.549Z,15.02
2023-01-29T03:29:40.385Z,14.50
2023-01-29T03:32:00.652Z,15.70
2023-01-29T03:34:09.479Z,16.88
2023-01-29T03:36:17.533Z,17.17
2023-01-29T03:38:20.280Z,16.05
2023-01-29T03:40:21.686Z,16.73
2023-01-29T03:42:34.654Z,16.70
2023-01-29T03:44:57.735Z,15.52
2023-01-29T03:47:05.911Z,16.50
2023-01-29T03:49:19.510Z,16.95
2023-01-29T03:51:38.934Z,17.45
2023-01-29T03:54:04.170Z,16.17
2023-01-29T03:56:18.184Z,17.38
2023-01-29T03:58:36.683Z,16.42
2023-01-29T04:00:50.609Z,16.45
2023-01-29T04:03:00.294Z,16.15
2023-01-29T04:05:12.991Z,16.35
2023-01-29T04:07:18.966Z,17.35
2023-01-29T04:09:25.423Z,17.40
2023-01-29T04:11:27.821Z,16.77
2023-01-29T04:13:33.634Z,16.90
2023-01-29T04:15:42.479Z,17.75
2023-01-29T04:17:49.967Z,18.02
2023-01-29T04:22:04.134Z,15.18
2023-01-29T04:24:07.574Z,16.80
2023-01-29T04:26:23.879Z,17.20
2023-01-29T04:28:45.971Z,17.85
2023-01-29T04:30:57.332Z,17.92
2023-01-29T04:33:25.014Z,18.23
2023-01-29T04:35:30.647Z,17.33
2023-01-29T04:37:56.507Z,18.30
2023-01-29T04:40:16.115Z,17.23
2023-01-29T04:42:37.641Z,17.30
2023-01-29T04:45:06.632Z,18.40
2023-01-29T04:47:23.433Z,17.30
2023-01-29T04:49:46.496Z,17.38
2023-01-29T04:51:57.154Z,17.92
2023-01-29T04:54:32.228Z,17.15
2023-01-29T04:56:44.409Z,18.00
2023-01-29T04:59:14.852Z,18.05
2023-01-29T05:01:19.100Z,17.73
2023-01-29T05:03:24.688Z,18.25
2023-01-29T05:05:27.639Z,17.67
2023-01-29T05:07:30.844Z,19.90
2023-01-29T05:09:34.133Z,19.13
2023-01-29T05:11:37.017Z,18.05
2023-01-29T05:13:41.751Z,17.85
2023-01-29T05:15:56.483Z,18.60
2023-01-29T05:18:01.699Z,17.77
2023-01-29T05:20:03.380Z,19.40
2023-01-29T05:22:06.135Z,18.73
2023-01-29T05:24:25.852Z,17.90
2023-01-29T05:26:46.617Z,19.15
2023-01-29T05:28:47.971Z,19.63
2023-01-29T05:30:55.073Z,18.17
2023-01-29T05:32:56.507Z,19.98
2023-01-29T05:34:57.927Z,18.63
2023-01-29T05:36:59.313Z,22.10
2023-01-29T05:39:00.654Z,19.83
2023-01-29T05:41:01.996Z,19.45
2023-01-29T05:43:04.387Z,20.85
2023-01-29T05:45:06.434Z,20.35
2023-01-29T05:47:07.927Z,21.38
2023-01-29T05:49:09.444Z,21.42
2023-01-29T05:51:10.834Z,20.80
2023-01-29T05:53:12.188Z,21.17
2023-01-29T05:55:13.594Z,20.35
2023-01-29T05:57:15.031Z,20.38
2023-01-29T05:59:16.753Z,21.77
2023-01-29T06:01:23.744Z,21.42
2023-01-29T06:03:25.161Z,21.75
2023-01-29T06:05:26.587Z,20.85
2023-01-29T06:07:28.081Z,19.95
2023-01-29T06:09:29.458Z,20.52
2023-01-29T06:11:30.897Z,21.52
2023-01-29T06:13:32.320Z,21.40
2023-01-29T06:15:33.658Z,19.60
2023-01-29T06:17:35.431Z,20.98
2023-01-29T06:19:36.803Z,21.20
2023-01-29T06:21:38.278Z,18.60
2023-01-29T06:23:40.076Z,20.48
2023-01-29T06:25:41.507Z,20.65
2023-01-29T06:27:42.893Z,21.65
2023-01-29T06:29:44.258Z,20.33
2023-01-29T06:31:45.811Z,19.98
2023-01-29T06:33:47.289Z,22.67
2023-01-29T06:35:48.682Z,20.73
2023-01-29T06:37:50.065Z,20.80
2023-01-29T06:39:51.538Z,19.25
2023-01-29T06:41:52.935Z,19.75
2023-01-29T06:43:54.351Z,20.95
2023-01-29T06:45:57.469Z,19.70
2023-01-29T06:48:01.143Z,21.27
2023-01-29T06:50:03.669Z,18.40
2023-01-29T06:52:05.295Z,18.60
2023-01-29T06:54:08.251Z,20.40
2023-01-29T06:56:09.670Z,19.95
2023-01-29T06:58:12.137Z,20.90
2023-01-29T07:00:15.354Z,20.25
2023-01-29T07:02:17.071Z,21.95
2023-01-29T07:04:18.498Z,19.63
2023-01-29T07:06:20.116Z,19.45
2023-01-29T07:08:22.727Z,20.90
2023-01-29T07:10:24.108Z,20.30
2023-01-29T07:12:25.514Z,20.85
2023-01-29T07:14:26.872Z,21.77
2023-01-29T07:16:28.691Z,21.85
2023-01-29T07:18:31.100Z,21.35
2023-01-29T07:20:32.465Z,20.67
2023-01-29T07:22:33.848Z,21.58
2023-01-29T07:24:35.210Z,20.33
2023-01-29T07:26:36.639Z,19.92
2023-01-29T07:28:39.030Z,19.92
2023-01-29T07:30:40.395Z,21.08
2023-01-29T07:32:42.009Z,19.13
2023-01-29T07:34:43.376Z,20.50
2023-01-29T07:36:44.792Z,19.63
2023-01-29T07:38:49.662Z,21.25
2023-01-29T07:40:54.300Z,19.67
2023-01-29T07:43:00.157Z,20.38
2023-01-29T07:45:01.559Z,19.85
2023-01-29T07:47:02.899Z,19.15
2023-01-29T07:49:04.245Z,21.00
2023-01-29T07:51:05.928Z,21.05
2023-01-29T07:53:07.382Z,19.88
2023-01-29T07:55:09.242Z,20.60
2023-01-29T07:57:10.691Z,19.95
2023-01-29T07:59:12.047Z,20.40
2023-01-29T08:01:13.502Z,21.23
2023-01-29T08:03:17.556Z,19.85
2023-01-29T08:05:19.585Z,20.35
2023-01-29T08:07:21.186Z,20.35
2023-01-29T08:09:22.601Z,19.65
2023-01-29T08:11:23.962Z,21.60
2023-01-29T08:13:25.346Z,20.75
2023-01-29T08:15:27.514Z,20.92
2023-01-29T08:17:28.921Z,20.35
2023-01-29T08:19:30.308Z,20.95
2023-01-29T08:21:31.653Z,21.42
2023-01-29T08:23:33.100Z,21.10
2023-01-29T08:25:36.177Z,19.45
2023-01-29T08:27:37.994Z,20.08
2023-01-29T08:29:39.437Z,19.98
2023-01-29T08:31:40.986Z,21.48
2023-01-29T08:33:44.209Z,20.27
2023-01-29T08:35:49.810Z,19.27
2023-01-29T08:37:59.670Z,20.98
2023-01-29T08:40:01.246Z,20.83
2023-01-29T08:42:02.619Z,19.67
2023-01-29T08:44:04.401Z,21.65
2023-01-29T08:46:07.084Z,21.05
2023-01-29T08:48:09.256Z,18.67
2023-01-29T08:50:11.354Z,20.25
2023-01-29T08:52:12.746Z,21.02
2023-01-29T08:54:14.200Z,20.33
2023-01-29T08:56:16.363Z,19.33
2023-01-29T08:58:18.103Z,19.65
2023-01-29T09:00:19.895Z,19.35
2023-01-29T09:02:21.305Z,20.92
2023-01-29T09:04:22.713Z,20.15
2023-01-29T09:06:24.049Z,20.17
2023-01-29T09:08:25.464Z,19.98
2023-01-29T09:10:26.933Z,20.15
2023-01-29T09:12:28.421Z,21.13
2023-01-29T09:14:29.789Z,20.83
2023-01-29T09:16:31.198Z,20.50
2023-01-29T09:18:32.653Z,19.30
2023-01-29T09:20:34.224Z,20.65
2023-01-29T09:22:36.109Z,20.27
2023-01-29T09:24:37.732Z,20.35
2023-01-29T09:26:40.096Z,20.25
2023-01-29T09:28:41.526Z,19.45
2023-01-29T09:30:43.750Z,21.52
2023-01-29T09:32:54.214Z,18.90
2023-01-29T09:34:56.951Z,19.60
2023-01-29T09:36:58.659Z,19.35
2023-01-29T09:39:00.022Z,19.25
2023-01-29T09:41:04.512Z,21.33
2023-01-29T09:43:20.341Z,19.35
2023-01-29T09:45:27.851Z,19.33
2023-01-29T09:47:31.850Z,21.50
2023-01-29T09:49:39.360Z,20.77
2023-01-29T09:53:58.578Z,17.98
2023-01-29T09:56:09.803Z,18.67
2023-01-29T09:58:30.292Z,20.20
2023-01-29T10:00:35.280Z,19.13
2023-01-29T10:02:50.479Z,17.58
2023-01-29T10:05:00.806Z,20.17
2023-01-29T10:07:16.176Z,20.80
2023-01-29T10:09:20.259Z,20.40
2023-01-29T10:11:27.745Z,19.50
2023-01-29T10:13:37.282Z,19.75
2023-01-29T10:16:15.354Z,18.85
2023-01-29T10:18:47.339Z,18.02
2023-01-29T10:21:22.766Z,19.48
2023-01-29T10:23:29.408Z,18.40
2023-01-29T10:25:33.008Z,19.20
2023-01-29T10:27:38.547Z,19.30
2023-01-29T10:29:43.106Z,18.58
2023-01-29T10:31:49.759Z,18.83
2023-01-29T10:34:01.949Z,19.15
2023-01-29T10:36:08.582Z,18.73
2023-01-29T10:38:33.312Z,17.98
2023-01-29T10:40:46.873Z,17.45
2023-01-29T10:45:23.905Z,17.20
2023-01-29T10:47:45.836Z,17.42
2023-01-29T10:49:49.868Z,17.17
2023-01-29T10:52:01.438Z,19.30
2023-01-29T10:54:15.735Z,17.23
2023-01-29T10:56:47.415Z,18.55
2023-01-29T10:59:01.206Z,18.08
2023-01-29T11:01:02.683Z,17.40
2023-01-29T11:03:28.310Z,16.77
2023-01-29T11:07:35.802Z,17.10
2023-01-29T11:09:46.250Z,17.40
2023-01-29T11:11:57.540Z,17.33
2023-01-29T11:14:07.147Z,17.08
2023-01-29T11:16:09.941Z,16.50
2023-01-29T11:18:15.323Z,16.45
2023-01-29T11:20:34.878Z,17.65
2023-01-29T11:22:36.874Z,18.75
2023-01-29T11:24:38.246Z,17.98
2023-01-29T11:26:42.274Z,17.60
2023-01-29T11:28:46.319Z,17.23
2023-01-29T11:30:47.796Z,15.82
2023-01-29T11:33:08.608Z,15.38
2023-01-29T11:35:15.994Z,16.42
2023-01-29T11:37:17.689Z,16.63
2023-01-29T11:39:21.584Z,17.35
2023-01-29T11:41:25.394Z,17.38
2023-01-29T11:43:26.753Z,17.90
2023-01-29T11:45:32.206Z,16.90
2023-01-29T11:47:33.666Z,16.92
2023-01-29T11:49:35.817Z,18.67
2023-01-29T11:51:40.107Z,16.58
2023-01-29T11:53:49.461Z,16.40
2023-01-29T11:55:51.660Z,17.27
2023-01-29T11:58:01.726Z,17.88
2023-01-29T12:00:27.787Z,16.15
2023-01-29T12:02:35.580Z,16.15
2023-01-29T12:04:39.631Z,16.95
2023-01-29T12:06:45.029Z,16.17
2023-01-29T12:08:54.678Z,16.67
2023-01-29T12:11:25.524Z,15.45
2023-01-29T12:13:28.540Z,15.45
2023-01-29T12:15:30.009Z,15.48
2023-01-29T12:17:37.205Z,15.13
2023-01-29T12:21:51.256Z,14.82
2023-01-29T12:24:24.942Z,14.00
2023-01-29T12:26:40.063Z,14.57
2023-01-29T12:28:55.503Z,14.95
2023-01-29T12:31:18.831Z,14.68
2023-01-29T12:33:32.765Z,14.85
2023-01-29T12:35:45.952Z,14.68
2023-01-29T12:38:01.035Z,12.35
2023-01-29T12:40:02.808Z,10.70
2023-01-29T12:42:19.833Z,15.32
2023-01-29T12:44:31.404Z,15.13
2023-01-29T12:46:43.655Z,15.65
2023-01-29T12:48:46.238Z,16.35
2023-01-29T12:50:50.102Z,16.48
2023-01-29T12:52:57.274Z,16.30
2023-01-29T12:55:05.945Z,16.23
2023-01-29T12:57:19.288Z,16.67
2023-01-29T12:59:28.356Z,16.70
2023-01-29T13:01:39.295Z,14.77
2023-01-29T13:03:56.009Z,17.75
2023-01-29T13:06:02.394Z,15.55
2023-01-29T13:08:09.625Z,17.35
2023-01-29T13:12:18.278Z,14.60
2023-01-29T13:14:25.207Z,13.65
2023-01-29T13:16:31.772Z,15.05
2023-01-29T13:18:37.711Z,14.95
2023-01-29T13:20:39.665Z,16.00
2023-01-29T13:22:43.856Z,14.82
2023-01-29T13:24:55.480Z,15.93
2023-01-29T13:27:04.115Z,15.13
2023-01-29T13:29:05.694Z,14.85
2023-01-29T13:31:22.462Z,14.27
2023-01-29T13:33:24.266Z,14.85
2023-01-29T13:35:25.670Z,13.55
2023-01-29T13:37:32.432Z,12.68
2023-01-29T13:39:37.845Z,14.95
2023-01-29T13:41:43.509Z,14.02
2023-01-29T13:43:50.133Z,12.68
2023-01-29T13:45:53.843Z,12.60
2023-01-29T13:48:10.104Z,13.52
2023-01-29T13:50:17.259Z,11.73
2023-01-29T13:52:33.960Z,10.43
2023-01-29T13:54:35.339Z,12.60
2023-01-29T13:56:39.847Z,11.70
2023-01-29T13:58:44.273Z,12.95
2023-01-29T14:00:49.767Z,13.00
2023-01-29T14:02:54.207Z,13.38
2023-01-29T14:05:29.656Z,12.52
2023-01-29T14:07:43.409Z,11.82
2023-01-29T14:09:44.731Z,13.35
2023-01-29T14:11:48.475Z,13.05
2023-01-29T14:13:52.170Z,13.35
2023-01-29T14:15:59.349Z,13.43
2023-01-29T14:20:20.774Z,11.85
2023-01-29T14:22:28.511Z,12.38
2023-01-29T14:24:31.017Z,11.32
2023-01-29T14:26:34.170Z,12.93
2023-01-29T14:28:35.809Z,12.25
2023-01-29T14:30:37.973Z,12.63
2023-01-29T14:32:40.490Z,11.98
2023-01-29T14:37:14.171Z,12.77
2023-01-29T14:39:43.890Z,12.25
2023-01-29T14:41:45.307Z,11.77
2023-01-29T14:43:46.668Z,13.77
2023-01-29T14:45:49.486Z,13.05
2023-01-29T14:47:50.849Z,13.00
2023-01-29T14:49:54.874Z,14.30
2023-01-29T14:51:57.003Z,12.35
2023-01-29T14:54:25.098Z,14.40
2023-01-29T14:56:33.739Z,13.52
2023-01-29T14:58:46.804Z,13.40
2023-01-29T15:00:53.310Z,14.27
2023-01-29T15:03:01.986Z,12.63
2023-01-29T15:05:10.997Z,13.90
2023-01-29T15:07:38.486Z,13.52
2023-01-29T15:09:47.908Z,14.50
2023-01-29T15:12:03.190Z,12.95
2023-01-29T15:14:23.950Z,13.82
2023-01-29T15:16:31.176Z,13.60
2023-01-29T15:18:41.866Z,13.80
2023-01-29T15:20:44.007Z,12.38
2023-01-29T15:22:45.414Z,13.07
2023-01-29T15:25:01.756Z,14.75
2023-01-29T15:27:03.694Z,13.38
2023-01-29T15:29:05.909Z,14.30
2023-01-29T15:31:13.716Z,12.57
2023-01-29T15:33:15.180Z,13.75
2023-01-29T15:35:34.118Z,12.93
2023-01-29T15:37:37.087Z,12.18
2023-01-29T15:39:43.878Z,12.30
2023-01-29T15:41:46.153Z,12.05
2023-01-29T15:43:50.373Z,13.10
2023-01-29T15:45:55.420Z,13.10
2023-01-29T15:48:20.326Z,12.23
2023-01-29T15:50:21.954Z,11.95
2023-01-29T15:52:30.455Z,12.38
2023-01-29T15:54:34.302Z,11.55
2023-01-29T15:56:43.426Z,10.40
2023-01-29T15:58:48.491Z,11.30
2023-01-29T16:00:55.702Z,11.52
2023-01-29T16:04:59.334Z,9.45
2023-01-29T16:07:01.951Z,9.68
2023-01-29T16:09:04.969Z,9.88
2023-01-29T16:11:07.664Z,11.20
2023-01-29T16:13:24.079Z,8.93
2023-01-29T16:15:34.638Z,10.32
2023-01-29T16:17:40.811Z,10.50
2023-01-29T16:19:42.279Z,10.35
2023-01-29T16:21:45.859Z,10.80
2023-01-29T16:23:54.283Z,9.98
2023-01-29T16:26:01.281Z,9.32
2023-01-29T16:28:05.379Z,11.18
2023-01-29T16:30:07.453Z,9.90
2023-01-29T16:32:09.615Z,10.73
2023-01-29T16:34:27.594Z,10.40
2023-01-29T16:36:29.000Z,10.32
2023-01-29T16:38:33.534Z,10.10
2023-01-29T16:40:37.895Z,10.48
2023-01-29T16:42:41.455Z,9.18
2023-01-29T16:44:58.209Z,10.80
2023-01-29T16:47:11.301Z,10.48
2023-01-29T16:49:30.884Z,9.40
2023-01-29T16:51:39.718Z,10.38
2023-01-29T16:53:53.537Z,9.63
2023-01-29T16:56:05.353Z,10.23
2023-01-29T16:58:16.569Z,10.57
2023-01-29T17:00:23.019Z,11.82
2023-01-29T17:02:30.455Z,11.88
2023-01-29T17:04:33.052Z,11.55
2023-01-29T17:06:35.047Z,10.98
2023-01-29T17:08:37.094Z,11.50
2023-01-29T17:10:38.500Z,11.23
2023-01-29T17:12:39.976Z,11.40
2023-01-29T17:14:53.503Z,12.57
2023-01-29T17:19:17.976Z,10.55
2023-01-29T17:21:19.479Z,11.60
2023-01-29T17:23:22.022Z,12.68
2023-01-29T17:25:23.699Z,11.75
2023-01-29T17:27:25.153Z,13.10
2023-01-29T17:29:30.065Z,11.65
2023-01-29T17:31:31.630Z,11.63
2023-01-29T17:33:34.403Z,12.85
2023-01-29T17:35:36.070Z,12.52
2023-01-29T17:37:37.428Z,13.05
2023-01-29T17:39:39.325Z,13.23
2023-01-29T17:41:47.331Z,12.18
2023-01-29T17:43:48.835Z,13.43
2023-01-29T17:45:50.293Z,12.95
2023-01-29T17:47:51.838Z,13.40
2023-01-29T17:49:53.386Z,13.88
2023-01-29T17:51:56.864Z,13.50
2023-01-29T17:53:58.487Z,13.20
2023-01-29T17:55:59.926Z,13.88
2023-01-29T17:58:01.385Z,13.27
2023-01-29T18:00:02.876Z,13.48
2023-01-29T18:02:04.354Z,11.30
2023-01-29T18:04:05.914Z,13.30
2023-01-29T18:06:08.986Z,13.07
2023-01-29T18:08:31.103Z,11.93
2023-01-29T18:10:32.466Z,13.45
2023-01-29T18:12:33.908Z,13.35
2023-01-29T18:14:35.257Z,11.50
2023-01-29T18:16:37.422Z,11.90
2023-01-29T18:18:40.230Z,12.85
2023-01-29T18:20:41.765Z,12.45
2023-01-29T18:22:43.245Z,12.50
2023-01-29T18:24:44.787Z,13.13
2023-01-29T18:26:47.307Z,12.02
2023-01-29T18:28:49.750Z,12.63
2023-01-29T18:30:51.433Z,11.80
2023-01-29T18:32:53.763Z,13.65
2023-01-29T18:34:55.112Z,12.00
2023-01-29T18:36:56.513Z,12.65
2023-01-29T18:38:58.244Z,12.85
2023-01-29T18:41:10.359Z,12.50
2023-01-29T18:43:11.728Z,12.05
2023-01-29T18:45:15.228Z,11.65
2023-01-29T18:47:17.857Z,11.80
2023-01-29T18:49:19.235Z,11.40
2023-01-29T18:51:20.621Z,11.18
2023-01-29T18:53:22.096Z,12.00
2023-01-29T18:55:23.889Z,10.45
2023-01-29T18:58:27.337Z,9.52
2023-01-29T18:59:46.627Z,9.32
2023-01-29T19:01:48.185Z,10.50
2023-01-29T19:03:49.729Z,9.52
2023-01-29T19:05:51.304Z,10.13
2023-01-29T19:07:52.663Z,10.63
2023-01-29T19:09:54.086Z,10.25
2023-01-29T19:11:55.588Z,10.13
2023-01-29T19:13:56.981Z,9.93
2023-01-29T19:15:58.881Z,9.48
2023-01-29T19:18:00.556Z,9.32
2023-01-29T19:20:03.438Z,9.93
2023-01-29T19:22:04.941Z,9.18
2023-01-29T19:24:09.370Z,9.43
2023-01-29T19:26:11.432Z,10.35
2023-01-29T19:28:13.110Z,9.98
2023-01-29T19:30:14.790Z,9.77
2023-01-29T19:32:16.191Z,9.88
2023-01-29T19:34:17.592Z,10.88
2023-01-29T19:36:19.078Z,9.35
2023-01-29T19:38:21.268Z,9.50
2023-01-29T19:40:23.692Z,9.25
2023-01-29T19:42:25.095Z,10.18
2023-01-29T19:44:26.717Z,10.70
2023-01-29T19:46:30.161Z,10.73
2023-01-29T19:48:31.541Z,11.30
2023-01-29T19:50:33.092Z,10.70
2023-01-29T19:52:51.076Z,11.10
2023-01-29T19:54:53.140Z,10.95
2023-01-29T19:56:54.824Z,11.13
2023-01-29T19:58:57.286Z,11.35
2023-01-29T20:01:05.535Z,10.00
2023-01-29T20:03:06.931Z,11.63
2023-01-29T20:05:11.154Z,10.40
2023-01-29T20:07:12.621Z,12.65
2023-01-29T20:09:14.064Z,10.55
2023-01-29T20:11:21.773Z,11.07
2023-01-29T20:13:23.426Z,10.45
2023-01-29T20:15:24.928Z,11.00
2023-01-29T20:17:26.314Z,11.15
2023-01-29T20:19:27.710Z,10.45
2023-01-29T20:21:29.337Z,10.15
2023-01-29T20:23:37.674Z,11.30
2023-01-29T20:25:40.310Z,10.40
2023-01-29T20:27:41.943Z,10.27
2023-01-29T20:29:45.166Z,10.18
2023-01-29T20:31:46.569Z,11.82
2023-01-29T20:33:48.029Z,10.45
2023-01-29T20:36:00.937Z,10.80
2023-01-29T20:38:03.007Z,11.35
2023-01-29T20:40:04.906Z,11.15
2023-01-29T20:42:06.254Z,9.63
2023-01-29T20:44:08.530Z,10.57
2023-01-29T20:46:10.437Z,9.10
2023-01-29T20:48:12.030Z,11.00
2023-01-29T20:50:15.544Z,11.38
2023-01-29T20:52:17.144Z,11.45
2023-01-29T20:54:18.668Z,11.50
2023-01-29T20:56:23.132Z,10.25
2023-01-29T20:58:40.787Z,10.68
2023-01-29T21:00:42.245Z,9.82
2023-01-29T21:02:45.686Z,10.20
2023-01-29T21:04:47.208Z,11.52
2023-01-29T21:06:48.708Z,10.70
2023-01-29T21:08:50.111Z,9.73
2023-01-29T21:10:54.651Z,11.18
2023-01-29T21:12:56.006Z,10.77
2023-01-29T21:14:57.391Z,9.48
2023-01-29T21:16:58.769Z,11.02
2023-01-29T21:19:00.218Z,11.45
2023-01-29T21:21:01.613Z,10.95
2023-01-29T21:23:06.620Z,10.93
2023-01-29T21:25:08.945Z,10.05
2023-01-29T21:27:10.597Z,10.32
2023-01-29T21:29:13.312Z,10.43
2023-01-29T21:31:16.186Z,9.25
2023-01-29T21:33:17.569Z,10.82
2023-01-29T21:35:18.998Z,9.43
2023-01-29T21:37:20.506Z,10.70
2023-01-29T21:39:24.584Z,10.27
2023-01-29T21:41:44.726Z,9.93
2023-01-29T21:43:46.142Z,10.80
2023-01-29T21:45:58.289Z,12.43
2023-01-29T21:47:59.698Z,10.32
2023-01-29T21:50:01.133Z,11.73
2023-01-29T21:52:02.704Z,11.38
2023-01-29T21:54:04.266Z,10.40
2023-01-29T21:56:06.094Z,11.25
2023-01-29T21:58:07.520Z,10.25
2023-01-29T22:00:11.830Z,11.57
2023-01-29T22:02:15.002Z,12.02
2023-01-29T22:04:16.462Z,11.60
2023-01-29T22:06:17.905Z,11.70
2023-01-29T22:08:20.395Z,11.77
2023-01-29T22:10:22.385Z,11.80
2023-01-29T22:12:24.006Z,11.85
2023-01-29T22:14:25.357Z,12.05
2023-01-29T22:16:26.773Z,9.85
2023-01-29T22:18:28.112Z,11.40
2023-01-29T22:20:30.602Z,12.05
2023-01-29T22:22:32.163Z,10.50
2023-01-29T22:24:33.521Z,10.63
2023-01-29T22:26:35.696Z,12.45
2023-01-29T22:28:37.165Z,12.15
2023-01-29T22:30:38.553Z,12.70
2023-01-29T22:32:39.994Z,12.20
2023-01-29T22:34:41.412Z,13.55
2023-01-29T22:36:42.776Z,13.50
2023-01-29T22:38:44.210Z,13.15
2023-01-29T22:40:50.263Z,13.45
2023-01-29T22:42:51.625Z,12.27
2023-01-29T22:44:53.072Z,13.38
2023-01-29T22:46:54.543Z,13.32
2023-01-29T22:48:56.509Z,10.60
2023-01-29T22:51:11.829Z,12.65
2023-01-29T22:53:13.220Z,11.07
2023-01-29T22:55:14.705Z,12.70
2023-01-29T22:57:16.156Z,12.57
2023-01-29T22:59:17.493Z,12.20
2023-01-29T23:01:20.311Z,13.57
2023-01-29T23:03:21.773Z,13.82
2023-01-29T23:05:23.150Z,12.07
2023-01-29T23:07:24.637Z,12.68
2023-01-29T23:09:26.033Z,12.05
2023-01-29T23:11:27.966Z,12.38
2023-01-29T23:13:29.314Z,11.65
2023-01-29T23:15:30.695Z,11.85
2023-01-29T23:17:32.342Z,12.38
2023-01-29T23:19:33.759Z,12.60
2023-01-29T23:21:35.122Z,12.77
2023-01-29T23:23:37.398Z,13.77
2023-01-29T23:25:57.230Z,13.88
2023-01-29T23:29:59.894Z,11.55
2023-01-29T23:32:04.983Z,13.43
2023-01-29T23:34:06.366Z,12.63
2023-01-29T23:36:08.526Z,13.88
2023-01-29T23:38:09.934Z,13.13
2023-01-29T23:40:11.789Z,14.35
2023-01-29T23:42:13.233Z,12.82
2023-01-29T23:44:14.646Z,14.63
2023-01-29T23:46:16.005Z,13.70
2023-01-29T23:48:17.475Z,12.45
2023-01-29T23:50:19.266Z,11.27
2023-01-29T23:52:20.918Z,14.05
2023-01-29T23:54:22.311Z,14.38
2023-01-29T23:56:23.747Z,13.40
2023-01-29T23:58:25.631Z,13.32
